Terminal Aerodrome Forecast
Issued by NWS

Home | Current Version | Previous Version | Text Only | Print | Product List | Glossary On
Versions: 1 2 3 4 5 6 7 8 9 10 11 12 13 14 15 16 17 18 19
000
FTUS41 KBTV 280538
TAFSLK
TAF
KSLK 280538Z 2806/2906 00000KT 2SM -SN BR OVC025
      TEMPO 2806/2807 3SM -SN BR
     FM280900 28005KT 6SM -SN BR OVC025
     FM281100 28008KT P6SM OVC025
     FM281700 28010G16KT P6SM OVC025
     FM282000 28010G16KT P6SM BKN035
     FM282300 26004KT P6SM SCT050
     FM290400 VRB03KT P6SM BKN045=

USA.gov is the U.S. government's official web portal to all federal, state and local government web resources and services.